Impacts METAR Board
IDs:

KLAS - Las Vegas/McCarran I, NV, US

Updated at: 1000 UTC 30 Oct 2020
Potential Impact None Slight Moderate High
Time 29/22Z 29/23Z 30/00Z 30/01Z 30/02Z 30/03Z 30/04Z 30/05Z 30/06Z 30/07Z 30/08Z 30/09Z 30/10Z
Temp77 78 77 75 73 69 65 63 61 60 59 58 58
Dewpt19 19 19 21 21 23 20 20 20 19 19 19 22
Altim30.08 30.06 30.06 30.05 30.06 30.07 30.07 30.08 30.09 30.08 30.08 30.09 30.08
VIS10 10 10 10 10 10 10 10 10 10 10 10 10
CIG-- -- -- -- -- -- -- -- -- -- -- -- --
CoverCLRCLRCLRCLRCLRCLRCLRCLRCLRCLRCLRCLRCLR
FltCatVFRVFRVFRVFRVFRVFRVFRVFRVFRVFRVFRVFRVFR
WX--------------------------
WDir0000240240210210210200230220250
WSpd0 0 0 0 3 3 5 3 5 4 3 6 3
WGst-- -- -- -- -- -- -- -- -- -- -- -- --
Raw hourly METARs
KLAS 292156Z 00000KT 10SM CLR 25/M07 A3008 RMK AO2 SLP171 T02501072
KLAS 292256Z 00000KT 10SM CLR 26/M07 A3006 RMK AO2 SLP166 T02561072
KLAS 292356Z 00000KT 10SM CLR 25/M07 A3006 RMK AO2 SLP164 T02501072 10261 20217 56015
KLAS 300056Z 00000KT 10SM CLR 24/M06 A3005 RMK AO2 SLP165 T02391061
KLAS 300156Z 24003KT 10SM CLR 23/M06 A3006 RMK AO2 SLP168 T02281061
KLAS 300256Z 24003KT 10SM CLR 21/M05 A3007 RMK AO2 SLP172 T02061050 53005
KLAS 300356Z 21005KT 10SM CLR 18/M07 A3007 RMK AO2 SLP171 T01831067
KLAS 300456Z 21003KT 10SM CLR 17/M07 A3008 RMK AO2 SLP173 T01721067
KLAS 300556Z 21005KT 10SM CLR 16/M07 A3009 RMK AO2 SLP175 T01611067 10250 20161 53005
KLAS 300656Z 20004KT 10SM CLR 16/M07 A3008 RMK AO2 SLP173 T01561072
KLAS 300756Z 23003KT 10SM CLR 15/M07 A3008 RMK AO2 SLP172 T01501072 402610117
KLAS 300856Z 22006KT 10SM CLR 14/M07 A3009 RMK AO2 SLP174 T01441072 53000
KLAS 300956Z 25003KT 10SM CLR 14/M06 A3008 RMK AO2 SLP172 T01441056



Page loaded:  10:59 UTC  |   03:59 AM Pacific  |   04:59 AM Mountain  |   05:59 AM Central  |   06:59 AM Eastern

 

ADVISORIES

FORECASTS

FORECASTS

OBSERVATIONS

USER TOOLS

ABOUT US